Time;durP1;ratioP1;P1;durP2;ratioP2;P2;SDS_P1;SDS_P2;PMS_P1;PMS_P2;Temp;Humidity;BMP_temperature;BMP_pressure;BME280_temperature;BME280_humidity;BME280_pressure;Samples;Min_cycle;Max_cycle;Signal;HPM_P1;HPM_P2
2023/10/30 00:01:57;;;;;;;5.30;3.20;;;;;;;10.06;75.85;98636.38;105968;1251;61128;-28
2023/10/30 00:04:24;;;;;;;9.30;4.50;;;;;;;9.90;76.75;98630.14;105925;1256;61175;-28
2023/10/30 00:06:51;;;;;;;7.40;3.40;;;;;;;9.86;77.42;98626.81;105956;1251;73785;-28
2023/10/30 00:09:18;;;;;;;7.90;4.00;;;;;;;10.25;75.76;98626.24;106005;1251;74839;-28
2023/10/30 00:11:47;;;;;;;3.60;2.20;;;;;;;10.42;74.83;98619.46;105731;1251;72592;-28
2023/10/30 00:14:15;;;;;;;5.60;3.20;;;;;;;10.32;74.92;98616.31;105848;1254;61141;-28
2023/10/30 00:16:41;;;;;;;10.30;3.90;;;;;;;10.15;75.56;98617.77;105914;1257;61164;-27
2023/10/30 00:19:09;;;;;;;7.70;3.50;;;;;;;9.99;76.07;98614.67;105998;1251;73688;-28
2023/10/30 00:21:36;;;;;;;5.70;3.00;;;;;;;9.81;77.08;98611.43;105947;1256;73458;-28
2023/10/30 00:24:04;;;;;;;15.50;3.30;;;;;;;10.07;76.45;98608.73;105768;1251;73172;-28
2023/10/30 00:26:31;;;;;;;8.10;4.30;;;;;;;10.45;74.82;98605.16;105846;1251;61113;-28
2023/10/30 00:28:58;;;;;;;9.30;3.70;;;;;;;10.48;74.27;98603.14;105952;1255;61179;-28
2023/10/30 00:31:25;;;;;;;6.00;3.30;;;;;;;10.33;74.51;98603.53;105687;1260;73821;-28
2023/10/30 00:33:55;;;;;;;8.30;3.30;;;;;;;10.10;75.32;98606.19;105799;1251;74779;-28
2023/10/30 00:36:22;;;;;;;6.80;3.70;;;;;;;9.91;76.15;98605.20;105692;1251;72749;-28
2023/10/30 00:38:49;;;;;;;8.60;3.30;;;;;;;9.79;76.89;98601.77;105702;1251;61141;-28
2023/10/30 00:41:16;;;;;;;9.60;3.70;;;;;;;10.03;76.55;98597.60;105888;1257;61147;-28
2023/10/30 00:43:43;;;;;;;5.70;2.90;;;;;;;10.32;74.81;98595.98;105817;1251;73803;-28
2023/10/30 00:46:09;;;;;;;4.90;2.60;;;;;;;10.30;74.82;98598.07;106010;1256;74825;-28
2023/10/30 00:48:36;;;;;;;9.20;3.60;;;;;;;10.16;75.25;98597.52;105907;1251;72543;-28
2023/10/30 00:51:03;;;;;;;3.50;2.40;;;;;;;9.97;76.07;98603.33;105745;1254;61110;-28
2023/10/30 00:53:30;;;;;;;7.70;2.70;;;;;;;9.79;76.74;98604.70;105734;1255;61233;-28
2023/10/30 00:55:57;;;;;;;6.50;3.70;;;;;;;9.89;76.95;98610.15;105873;1251;74415;-28
2023/10/30 00:58:24;;;;;;;6.90;3.70;;;;;;;10.30;75.10;98602.40;105970;1251;74365;-28
2023/10/30 01:00:51;;;;;;;6.20;2.50;;;;;;;10.47;74.17;98604.31;105884;1256;71531;-32
2023/10/30 01:03:23;;;;;;;5.70;3.20;;;;;;;10.40;74.05;98604.02;105661;1251;61069;-28
2023/10/30 01:05:58;;;;;;;7.80;3.60;;;;;;;10.20;74.80;98598.77;105787;1252;61167;-28
2023/10/30 01:08:26;;;;;;;7.80;3.50;;;;;;;9.99;75.84;98601.15;105690;1251;73637;-29
2023/10/30 01:10:55;;;;;;;6.50;2.90;;;;;;;9.85;76.29;98608.05;105644;1251;73135;-32
2023/10/30 01:13:23;;;;;;;9.30;3.50;;;;;;;10.01;76.28;98603.73;105765;1252;72646;-28
2023/10/30 01:15:56;;;;;;;7.80;3.50;;;;;;;10.41;74.61;98600.29;105763;1254;61142;-28
2023/10/30 01:18:23;;;;;;;;;;;;;;;10.45;74.09;98598.20;105672;1257;61156;-28
2023/10/30 01:20:51;;;;;;;4.80;2.80;;;;;;;10.29;74.44;98593.95;105650;1251;73720;-28
2023/10/30 01:23:18;;;;;;;11.00;3.60;;;;;;;10.09;75.13;98599.70;105683;1257;74072;-28
2023/10/30 01:25:46;;;;;;;8.20;4.00;;;;;;;9.88;76.14;98598.42;105766;1254;72611;-28
2023/10/30 01:28:14;;;;;;;8.70;4.00;;;;;;;9.67;77.09;98592.00;105790;1254;61070;-28
2023/10/30 01:30:41;;;;;;;9.30;3.50;;;;;;;9.83;77.31;98592.61;105919;1256;61134;-28
2023/10/30 01:33:09;;;;;;;6.50;3.50;;;;;;;10.21;75.79;98589.80;105647;1251;73635;-28
2023/10/30 01:35:37;;;;;;;2.60;2.00;;;;;;;10.28;75.09;98593.23;105934;1251;74360;-28
2023/10/30 01:38:03;;;;;;;8.70;3.40;;;;;;;10.23;74.98;98591.27;105544;1254;72720;-28
2023/10/30 01:40:31;;;;;;;9.10;3.70;;;;;;;10.09;75.36;98589.18;105642;1254;61147;-27
2023/10/30 01:42:57;;;;;;;5.50;3.30;;;;;;;9.92;76.23;98587.49;105808;1251;61113;-28
2023/10/30 01:45:24;;;;;;;6.50;2.90;;;;;;;9.76;77.06;98584.99;105785;1251;73914;-28
2023/10/30 01:47:51;;;;;;;5.50;2.50;;;;;;;10.07;76.44;98585.38;105971;1251;74196;-27
2023/10/30 01:50:20;;;;;;;8.10;3.20;;;;;;;10.49;74.64;98584.69;105847;1253;72743;-28
2023/10/30 01:52:46;;;;;;;8.50;3.30;;;;;;;10.52;74.31;98592.88;105593;1250;60998;-28
2023/10/30 01:55:13;;;;;;;5.30;2.60;;;;;;;10.48;74.42;98598.99;105622;1259;61244;-28
2023/10/30 01:57:40;;;;;;;7.00;3.60;;;;;;;10.38;74.71;98599.16;105718;1251;74195;-28
2023/10/30 02:00:09;;;;;;;7.60;3.80;;;;;;;10.30;75.45;98601.77;105744;1251;74303;-28
2023/10/30 02:02:39;;;;;;;11.60;3.40;;;;;;;10.18;76.04;98599.42;105588;1254;71607;-28
2023/10/30 02:05:08;;;;;;;4.70;3.10;;;;;;;10.49;75.24;98593.50;105730;1251;61080;-28
2023/10/30 02:07:35;;;;;;;6.30;3.30;;;;;;;10.89;73.69;98588.98;105544;1259;61943;-28
2023/10/30 02:10:04;;;;;;;6.90;3.50;;;;;;;10.90;73.44;98588.23;105797;1251;73617;-28
2023/10/30 02:12:34;;;;;;;5.70;2.90;;;;;;;10.81;73.73;98587.73;105519;1259;75775;-28
2023/10/30 02:15:02;;;;;;;7.50;3.50;;;;;;;10.66;73.99;98588.08;105697;1258;71304;-28
2023/10/30 02:17:29;;;;;;;9.30;3.40;;;;;;;10.52;74.59;98588.89;105794;1254;61117;-28
2023/10/30 02:19:56;;;;;;;6.50;2.30;;;;;;;10.54;75.22;98592.54;105857;1254;61267;-27
2023/10/30 02:22:23;;;;;;;6.30;2.70;;;;;;;11.02;73.97;98585.92;105836;1256;72575;-28
2023/10/30 02:24:49;;;;;;;5.60;2.90;;;;;;;11.26;72.63;98585.59;105951;1255;74238;-28
2023/10/30 02:27:17;;;;;;;6.90;3.60;;;;;;;11.22;72.57;98584.26;105961;1253;73189;-28
2023/10/30 02:29:44;;;;;;;7.80;3.30;;;;;;;11.09;73.22;98586.06;105779;1251;61136;-28
2023/10/30 02:32:10;;;;;;;4.90;2.50;;;;;;;10.93;73.74;98585.62;105567;1254;61166;-28
2023/10/30 02:34:37;;;;;;;8.40;3.40;;;;;;;10.78;74.43;98582.61;105953;1251;74473;-27
2023/10/30 02:37:05;;;;;;;6.80;2.70;;;;;;;10.65;75.23;98583.09;105768;1254;74151;-28
2023/10/30 02:39:35;;;;;;;6.20;3.00;;;;;;;10.96;74.43;98578.98;105837;1253;72463;-28
2023/10/30 02:42:02;;;;;;;5.10;2.70;;;;;;;11.26;72.78;98576.79;105928;1251;61200;-28
2023/10/30 02:44:29;;;;;;;7.10;2.40;;;;;;;11.25;72.49;98579.06;105925;1255;61141;-28
2023/10/30 02:46:56;;;;;;;17.20;2.60;;;;;;;11.13;72.91;98584.02;105934;1251;73843;-28
2023/10/30 02:49:25;;;;;;;4.80;2.30;;;;;;;11.01;73.63;98584.92;105981;1251;74268;-28
2023/10/30 02:51:52;;;;;;;6.30;2.60;;;;;;;10.93;74.01;98581.50;105814;1254;72426;-28
2023/10/30 02:54:18;;;;;;;6.20;2.40;;;;;;;10.84;74.55;98581.05;105931;1251;61034;-28
2023/10/30 02:56:46;;;;;;;5.20;2.90;;;;;;;11.16;73.63;98578.04;105778;1254;61617;-28
2023/10/30 02:59:12;;;;;;;8.50;3.30;;;;;;;11.42;72.22;98575.62;105766;1254;73537;-32
2023/10/30 03:01:41;;;;;;;4.70;2.30;;;;;;;11.47;71.92;98580.56;105826;1256;74168;-28
2023/10/30 03:04:09;;;;;;;9.60;2.90;;;;;;;11.35;72.12;98581.81;105668;1251;72511;-28
2023/10/30 03:06:36;;;;;;;7.60;3.30;;;;;;;11.25;72.57;98578.63;105779;1254;61143;-28
2023/10/30 03:09:03;;;;;;;6.90;3.30;;;;;;;11.10;73.10;98575.73;105946;1251;61088;-28
2023/10/30 03:11:30;;;;;;;6.00;2.30;;;;;;;11.00;73.55;98577.22;105761;1251;74559;-28
2023/10/30 03:13:57;;;;;;;8.20;2.70;;;;;;;11.34;72.68;98573.02;105959;1255;74116;-28
2023/10/30 03:16:24;;;;;;;9.10;3.40;;;;;;;11.67;70.93;98571.73;105941;1251;72688;-28
2023/10/30 03:18:51;;;;;;;5.00;2.90;;;;;;;11.74;70.41;98570.44;105871;1251;61154;-28
2023/10/30 03:21:19;;;;;;;6.00;3.30;;;;;;;11.63;70.79;98562.92;105774;1257;61206;-28
2023/10/30 03:23:46;;;;;;;4.70;2.30;;;;;;;11.48;71.39;98565.48;105913;1251;73870;-28
2023/10/30 03:26:13;;;;;;;6.50;3.70;;;;;;;11.30;72.07;98562.32;105354;1251;74304;-28
2023/10/30 03:28:40;;;;;;;6.50;3.00;;;;;;;11.16;72.81;98564.81;105766;1251;72662;-28
2023/10/30 03:31:07;;;;;;;3.90;2.00;;;;;;;11.09;73.08;98570.61;105716;1254;61169;-28
2023/10/30 03:33:35;;;;;;;8.70;2.40;;;;;;;11.30;72.91;98561.63;105950;1255;61160;-28
2023/10/30 03:36:03;;;;;;;9.00;2.60;;;;;;;11.67;71.06;98561.50;106012;1251;73714;-27
2023/10/30 03:38:30;;;;;;;7.90;2.70;;;;;;;11.74;70.98;98563.08;105705;1258;74362;-28
2023/10/30 03:40:56;;;;;;;4.50;1.90;;;;;;;11.59;71.26;98561.41;105887;1251;72977;-28
2023/10/30 03:43:23;;;;;;;4.60;2.40;;;;;;;11.45;71.48;98565.66;105894;1251;61179;-28
2023/10/30 03:45:51;;;;;;;6.90;2.70;;;;;;;11.32;72.06;98563.00;105845;1257;61146;-28
2023/10/30 03:48:18;;;;;;;8.10;3.20;;;;;;;11.21;72.74;98563.98;105734;1251;73785;-28
2023/10/30 03:50:48;;;;;;;3.60;1.80;;;;;;;11.21;73.00;98561.08;105841;1251;74370;-28
2023/10/30 03:53:15;;;;;;;6.80;2.60;;;;;;;11.63;71.59;98557.76;105749;1259;72642;-28
2023/10/30 03:55:42;;;;;;;5.40;2.70;;;;;;;11.80;70.55;98556.69;105945;1251;61082;-28
2023/10/30 03:58:08;;;;;;;3.10;2.00;;;;;;;11.77;70.39;98556.27;105716;1251;61172;-28
2023/10/30 04:00:35;;;;;;;6.70;2.70;;;;;;;11.64;70.73;98551.05;105980;1251;73848;-28
2023/10/30 04:03:02;;;;;;;9.20;2.30;;;;;;;11.52;71.14;98552.11;105994;1255;74127;-28
2023/10/30 04:05:29;;;;;;;5.90;2.30;;;;;;;11.39;71.77;98547.61;105811;1251;72591;-28
2023/10/30 04:07:56;;;;;;;4.40;2.40;;;;;;;11.28;72.42;98543.56;105895;1251;61028;-28
2023/10/30 04:10:23;;;;;;;4.90;1.90;;;;;;;11.38;72.67;98538.70;105942;1257;61295;-26
2023/10/30 04:12:50;;;;;;;3.60;1.80;;;;;;;11.80;70.81;98541.30;105964;1256;73761;-27
2023/10/30 04:15:18;;;;;;;8.70;3.20;;;;;;;11.91;70.00;98538.30;105982;1255;74238;-27
2023/10/30 04:17:45;;;;;;;4.50;2.10;;;;;;;11.82;70.37;98541.23;105812;1254;72366;-27
2023/10/30 04:20:12;;;;;;;5.70;2.00;;;;;;;11.68;70.55;98538.66;105941;1251;61064;-27
2023/10/30 04:22:39;;;;;;;5.30;2.00;;;;;;;11.54;70.92;98538.02;105966;1256;61234;-28
2023/10/30 04:25:07;;;;;;;3.90;2.20;;;;;;;11.45;71.50;98533.14;103554;1251;3290238;-27
2023/10/30 04:27:34;;;;;;;5.10;2.40;;;;;;;11.37;71.74;98532.14;105742;1251;74446;-27
2023/10/30 04:30:02;;;;;;;5.20;2.20;;;;;;;11.37;72.04;98526.27;105945;1251;73266;-27
2023/10/30 04:32:29;;;;;;;4.20;1.90;;;;;;;11.74;70.77;98526.59;105622;1259;61071;-27
2023/10/30 04:34:56;;;;;;;2.20;1.20;;;;;;;12.02;69.72;98529.03;105895;1257;61102;-27
2023/10/30 04:37:23;;;;;;;3.90;1.60;;;;;;;11.95;69.47;98528.09;105971;1251;73863;-27
2023/10/30 04:39:50;;;;;;;7.70;2.60;;;;;;;11.88;69.53;98526.88;105959;1251;74356;-27
2023/10/30 04:42:17;;;;;;;6.10;2.20;;;;;;;11.76;70.15;98524.20;105605;1251;72627;-27
2023/10/30 04:44:44;;;;;;;8.30;2.00;;;;;;;11.63;70.59;98524.70;105857;1251;60977;-27
2023/10/30 04:47:11;;;;;;;3.60;1.60;;;;;;;11.57;70.82;98521.90;105670;1256;61118;-27
2023/10/30 04:49:38;;;;;;;2.50;1.40;;;;;;;11.52;71.46;98519.63;105939;1251;74021;-28
2023/10/30 04:52:05;;;;;;;4.50;1.40;;;;;;;11.84;70.91;98522.40;105690;1251;74897;-27
2023/10/30 04:54:32;;;;;;;5.20;1.90;;;;;;;12.14;69.33;98524.95;105722;1251;72465;-27
2023/10/30 04:56:59;;;;;;;4.20;2.00;;;;;;;12.15;69.09;98525.71;105870;1251;61095;-27
2023/10/30 04:59:26;;;;;;;2.30;1.50;;;;;;;12.14;69.30;98521.08;105903;1253;61208;-27
2023/10/30 05:01:53;;;;;;;5.10;2.50;;;;;;;12.02;69.80;98524.15;105784;1251;73827;-28
2023/10/30 05:04:20;;;;;;;4.20;2.00;;;;;;;11.91;70.24;98527.33;105952;1251;74406;-27
2023/10/30 05:06:48;;;;;;;3.90;2.00;;;;;;;11.84;70.87;98533.55;105979;1251;72494;-27
2023/10/30 05:09:15;;;;;;;5.40;2.00;;;;;;;11.77;71.06;98530.32;105827;1254;61256;-27
2023/10/30 05:11:42;;;;;;;3.50;1.40;;;;;;;11.93;71.55;98522.09;105979;1256;61160;-27
2023/10/30 05:14:09;;;;;;;2.40;1.50;;;;;;;12.34;69.75;98532.60;105702;1251;73542;-27
2023/10/30 05:16:35;;;;;;;3.90;1.70;;;;;;;12.45;68.89;98536.73;105957;1255;74422;-27
2023/10/30 05:19:03;;;;;;;5.30;2.30;;;;;;;12.49;68.74;98539.67;105836;1254;72557;-28
2023/10/30 05:21:29;;;;;;;4.30;2.00;;;;;;;12.45;68.82;98539.38;105897;1251;61134;-27
2023/10/30 05:23:56;;;;;;;3.60;1.50;;;;;;;12.40;69.05;98544.77;105932;1257;61506;-27
2023/10/30 05:26:23;;;;;;;5.10;1.70;;;;;;;12.33;69.51;98544.86;105934;1251;73613;-27
2023/10/30 05:28:50;;;;;;;6.60;2.10;;;;;;;12.28;69.52;98542.58;105969;1251;74250;-27
2023/10/30 05:31:17;;;;;;;4.30;2.00;;;;;;;12.25;69.56;98548.65;105911;1251;72499;-27
2023/10/30 05:33:44;;;;;;;1.90;1.20;;;;;;;12.28;69.66;98547.97;105892;1251;61152;-28
2023/10/30 05:36:11;;;;;;;4.50;1.60;;;;;;;12.73;67.86;98546.09;105539;1261;61103;-27
2023/10/30 05:38:38;;;;;;;2.70;1.60;;;;;;;13.23;66.23;98539.08;105914;1251;73894;-28
2023/10/30 05:41:04;;;;;;;5.70;1.80;;;;;;;13.34;65.28;98542.80;105928;1251;74342;-27
2023/10/30 05:43:31;;;;;;;2.90;1.40;;;;;;;13.33;64.94;98550.48;105904;1251;72734;-28
2023/10/30 05:45:59;;;;;;;4.00;1.90;;;;;;;13.28;64.62;98544.98;105662;1254;61217;-28
2023/10/30 05:48:26;;;;;;;4.60;1.70;;;;;;;13.35;64.57;98550.98;105862;1257;61092;-28
2023/10/30 05:50:53;;;;;;;6.00;2.00;;;;;;;13.36;64.35;98554.81;105989;1251;73788;-28
2023/10/30 05:53:20;;;;;;;5.30;2.20;;;;;;;13.38;64.16;98555.20;105865;1251;73434;-28
2023/10/30 05:55:47;;;;;;;4.10;1.60;;;;;;;13.41;63.71;98553.20;105877;1251;73162;-27
2023/10/30 05:58:14;;;;;;;5.00;1.80;;;;;;;13.46;63.62;98547.80;105748;1251;61210;-28
2023/10/30 06:00:42;;;;;;;6.40;2.20;;;;;;;13.50;62.77;98545.41;105932;1256;61162;-27
2023/10/30 06:03:09;;;;;;;3.90;1.70;;;;;;;13.57;63.05;98547.95;105945;1257;74250;-27
2023/10/30 06:05:36;;;;;;;4.90;2.10;;;;;;;13.62;62.73;98553.21;105836;1257;74848;-27
2023/10/30 06:08:03;;;;;;;4.00;2.00;;;;;;;13.67;62.28;98556.27;105963;1251;71549;-28
2023/10/30 06:10:30;;;;;;;3.90;1.80;;;;;;;13.72;62.29;98554.35;105913;1251;61128;-28
2023/10/30 06:12:57;;;;;;;5.70;2.30;;;;;;;13.79;61.62;98556.81;105818;1253;61143;-32
2023/10/30 06:15:24;;;;;;;3.10;2.00;;;;;;;13.86;61.36;98559.06;105790;1251;74256;-28
2023/10/30 06:17:51;;;;;;;5.20;2.00;;;;;;;13.94;61.02;98559.95;105772;1257;74869;-28
2023/10/30 06:20:18;;;;;;;4.50;1.80;;;;;;;14.03;60.50;98566.96;105732;1251;72615;-28
2023/10/30 06:22:45;;;;;;;4.20;1.60;;;;;;;14.09;59.90;98565.27;105661;1251;60975;-27
2023/10/30 06:25:11;;;;;;;4.90;2.10;;;;;;;14.15;60.30;98567.45;105703;1257;61131;-27
2023/10/30 06:27:41;;;;;;;6.20;1.80;;;;;;;14.19;59.97;98569.86;105931;1251;73560;-28
2023/10/30 06:30:09;;;;;;;5.20;2.00;;;;;;;14.24;59.57;98566.19;105886;1257;74295;-28
2023/10/30 06:32:36;;;;;;;2.40;1.60;;;;;;;14.30;59.97;98572.48;105747;1254;72639;-28
2023/10/30 06:35:04;;;;;;;3.60;1.70;;;;;;;14.36;59.18;98568.21;105976;1255;61263;-27
2023/10/30 06:37:31;;;;;;;7.50;2.20;;;;;;;14.41;58.79;98567.54;105780;1251;61131;-27
2023/10/30 06:39:58;;;;;;;7.30;1.90;;;;;;;14.47;58.79;98576.32;106048;1251;74040;-27
2023/10/30 06:42:25;;;;;;;3.40;2.00;;;;;;;14.50;58.54;98573.40;105883;1251;74430;-28
2023/10/30 06:44:52;;;;;;;3.90;1.70;;;;;;;14.56;58.21;98563.52;105634;1254;72491;-28
2023/10/30 06:47:19;;;;;;;4.60;1.80;;;;;;;14.61;58.10;98570.98;105915;1251;61067;-27
2023/10/30 06:49:46;;;;;;;4.00;1.80;;;;;;;14.64;58.02;98572.82;105978;1256;61137;-27
2023/10/30 06:52:13;;;;;;;3.50;1.70;;;;;;;14.64;57.71;98569.64;105957;1251;73589;-28
2023/10/30 06:54:40;;;;;;;4.80;1.90;;;;;;;14.68;57.64;98567.86;105990;1251;74389;-28
2023/10/30 06:57:06;;;;;;;3.00;1.60;;;;;;;14.71;57.66;98571.55;105952;1252;72735;-28
2023/10/30 06:59:33;;;;;;;6.70;2.00;;;;;;;14.76;57.32;98570.63;105935;1251;61137;-27
2023/10/30 07:02:00;;;;;;;3.10;1.60;;;;;;;14.77;57.77;98569.20;106006;1255;61173;-27
2023/10/30 07:04:27;;;;;;;3.50;1.70;;;;;;;14.78;56.88;98566.48;106017;1251;73573;-28
2023/10/30 07:06:54;;;;;;;3.00;1.50;;;;;;;14.86;56.82;98567.25;105956;1251;75007;-28
2023/10/30 07:09:22;;;;;;;6.20;2.10;;;;;;;14.88;56.63;98563.33;105929;1251;73438;-28
2023/10/30 07:11:49;;;;;;;3.50;1.40;;;;;;;14.93;56.61;98570.70;105858;1256;61281;-29
2023/10/30 07:14:16;;;;;;;4.70;1.80;;;;;;;14.98;56.40;98562.80;105941;1257;61160;-28
2023/10/30 07:16:43;;;;;;;1.70;1.40;;;;;;;15.04;57.05;98566.32;105936;1251;72915;-28
2023/10/30 07:19:29;;;;;;;3.20;1.40;;;;;;;15.09;56.40;98565.69;105831;1251;73263;-27
2023/10/30 07:21:56;;;;;;;4.70;1.80;;;;;;;15.17;56.00;98561.67;105954;1251;73270;-26
2023/10/30 07:24:24;;;;;;;4.50;2.10;;;;;;;15.20;56.06;98561.98;105825;1254;61131;-27
2023/10/30 07:26:51;;;;;;;5.90;1.80;;;;;;;15.23;56.32;98558.00;105821;1257;61119;-28
2023/10/30 07:29:18;;;;;;;3.10;1.60;;;;;;;15.27;56.26;98553.40;105861;1251;73279;-28
2023/10/30 07:31:45;;;;;;;4.70;2.40;;;;;;;15.33;55.96;98558.30;105837;1256;73327;-28
2023/10/30 07:34:12;;;;;;;5.00;2.30;;;;;;;15.38;56.15;98559.55;105793;1251;72631;-28
2023/10/30 07:36:39;;;;;;;5.30;2.80;;;;;;;15.42;55.67;98555.63;105885;1257;61179;-28
2023/10/30 07:39:07;;;;;;;9.30;5.30;;;;;;;15.49;55.40;98551.00;105865;1256;61164;-28
2023/10/30 07:41:37;;;;;;;9.50;5.00;;;;;;;15.56;55.79;98545.67;105932;1257;72302;-28
2023/10/30 07:44:07;;;;;;;8.20;4.90;;;;;;;15.63;55.56;98548.48;105926;1251;74138;-28
2023/10/30 07:46:35;;;;;;;6.50;3.70;;;;;;;15.70;54.89;98548.14;105455;1254;71680;-28
2023/10/30 07:49:04;;;;;;;10.80;4.60;;;;;;;15.78;55.03;98545.91;105676;1252;61136;-28
2023/10/30 07:51:31;;;;;;;9.40;4.30;;;;;;;15.82;55.13;98550.69;105688;1259;61264;-28
2023/10/30 07:53:58;;;;;;;4.80;2.70;;;;;;;15.91;54.84;98553.80;105814;1252;73637;-28
2023/10/30 07:56:25;;;;;;;5.60;2.90;;;;;;;15.95;54.29;98554.19;105486;1258;75881;-28
2023/10/30 07:58:52;;;;;;;4.80;1.70;;;;;;;15.97;54.43;98550.71;105689;1251;73182;-28
2023/10/30 08:01:20;;;;;;;3.60;2.30;;;;;;;16.00;54.20;98549.14;105748;1251;61064;-29
2023/10/30 08:03:47;;;;;;;5.00;3.00;;;;;;;16.07;54.41;98548.66;105870;1252;61151;-28
2023/10/30 08:06:14;;;;;;;5.50;3.10;;;;;;;16.12;54.13;98551.45;105983;1251;73785;-28
2023/10/30 08:08:41;;;;;;;6.00;3.30;;;;;;;16.14;54.18;98553.70;105719;1251;74486;-28
2023/10/30 08:11:09;;;;;;;10.80;4.40;;;;;;;16.17;53.72;98549.48;105885;1251;73447;-28
2023/10/30 08:13:37;;;;;;;5.20;2.90;;;;;;;16.25;53.77;98546.13;105653;1257;61837;-28
2023/10/30 08:16:05;;;;;;;5.40;3.60;;;;;;;16.34;53.36;98550.20;105649;1253;61223;-28
2023/10/30 08:18:32;;;;;;;6.90;2.90;;;;;;;16.36;53.47;98547.19;105638;1259;73754;-28
2023/10/30 08:20:59;;;;;;;5.40;2.30;;;;;;;16.42;53.22;98546.45;105812;1251;74310;-26
2023/10/30 08:23:36;;;;;;;5.10;2.20;;;;;;;16.56;53.18;98544.79;105827;1253;73162;-26
2023/10/30 08:26:05;;;;;;;4.20;1.90;;;;;;;16.67;52.49;98545.75;105816;1258;61090;-26
2023/10/30 08:28:32;;;;;;;4.00;2.30;;;;;;;16.77;52.07;98540.77;105601;1251;61160;-26
2023/10/30 08:31:00;;;;;;;4.50;1.90;;;;;;;16.88;51.92;98543.36;105691;1251;72859;-26
2023/10/30 08:33:27;;;;;;;4.70;1.80;;;;;;;16.96;51.97;98544.96;105625;1254;73859;-26
2023/10/30 08:35:54;;;;;;;3.10;1.40;;;;;;;17.02;51.44;98536.29;105686;1251;72435;-26
2023/10/30 08:38:21;;;;;;;6.70;2.00;;;;;;;17.14;51.06;98539.14;105739;1251;62259;-27
2023/10/30 08:40:48;;;;;;;4.90;2.50;;;;;;;17.30;50.67;98539.80;105742;1256;61112;-26
2023/10/30 08:43:15;;;;;;;6.00;2.00;;;;;;;17.55;50.50;98547.02;105910;1251;73687;-26
2023/10/30 08:45:42;;;;;;;8.20;2.00;;;;;;;17.78;50.34;98545.39;105917;1251;74303;-26
2023/10/30 08:48:12;;;;;;;4.50;2.80;;;;;;;17.92;50.04;98550.54;105816;1251;73060;-26
2023/10/30 08:50:43;;;;;;;4.10;2.20;;;;;;;17.96;49.48;98552.38;105427;1261;61024;-26
2023/10/30 08:53:10;;;;;;;2.70;1.60;;;;;;;18.04;49.18;98555.69;105937;1251;61127;-26
2023/10/30 08:55:38;;;;;;;5.60;1.80;;;;;;;18.18;49.18;98555.71;105971;1251;73800;-26
2023/10/30 08:58:05;;;;;;;5.80;1.70;;;;;;;18.26;48.51;98555.08;105832;1257;74373;-27
2023/10/30 09:00:32;;;;;;;3.70;1.40;;;;;;;18.28;48.98;98562.80;105878;1251;72801;-26
2023/10/30 09:02:59;;;;;;;3.20;1.60;;;;;;;18.38;48.64;98559.82;105757;1251;61173;-26
2023/10/30 09:05:26;;;;;;;3.90;2.30;;;;;;;18.43;48.77;98564.94;105840;1251;61178;-26
2023/10/30 09:07:54;;;;;;;5.40;2.10;;;;;;;18.40;48.58;98562.39;105882;1251;74736;-26
2023/10/30 09:10:26;;;;;;;4.20;2.10;;;;;;;18.34;48.87;98565.94;105959;1257;75177;-27
2023/10/30 09:12:53;;;;;;;5.30;1.40;;;;;;;18.40;48.51;98557.08;105774;1257;72602;-28
2023/10/30 09:15:20;;;;;;;6.50;1.50;;;;;;;18.39;48.60;98568.51;105898;1252;61080;-27
2023/10/30 09:17:47;;;;;;;4.60;2.20;;;;;;;18.38;48.62;98561.56;105861;1253;61224;-27
2023/10/30 09:20:15;;;;;;;3.10;1.50;;;;;;;18.47;48.95;98569.47;105900;1255;73805;-27
2023/10/30 09:22:42;;;;;;;11.60;2.20;;;;;;;18.42;49.01;98566.30;105980;1252;74431;-27
2023/10/30 09:25:09;;;;;;;2.70;1.30;;;;;;;18.51;48.49;98565.30;105920;1251;72771;-27
2023/10/30 09:27:36;;;;;;;3.50;1.10;;;;;;;18.54;48.76;98568.29;105838;1256;61112;-27
2023/10/30 09:30:04;;;;;;;3.10;1.20;;;;;;;18.60;48.52;98563.34;105763;1257;61163;-27
2023/10/30 09:32:31;;;;;;;3.00;1.10;;;;;;;18.59;48.42;98564.31;105766;1259;72611;-27
2023/10/30 09:34:59;;;;;;;4.30;1.50;;;;;;;18.57;47.92;98564.86;106001;1251;75159;-27
2023/10/30 09:37:27;;;;;;;3.50;1.20;;;;;;;18.49;48.27;98565.39;105956;1257;72389;-27
2023/10/30 09:39:54;;;;;;;2.50;1.20;;;;;;;18.54;48.62;98570.91;105889;1253;61074;-27
2023/10/30 09:42:21;;;;;;;3.60;1.00;;;;;;;18.53;48.50;98564.80;105965;1253;61129;-27
2023/10/30 09:44:48;;;;;;;3.10;1.20;;;;;;;18.52;48.44;98558.77;105957;1251;73777;-27
2023/10/30 09:47:16;;;;;;;4.30;2.30;;;;;;;18.52;48.56;98564.66;105984;1251;74418;-27
2023/10/30 09:49:43;;;;;;;3.50;1.10;;;;;;;18.55;48.95;98559.73;105683;1251;73447;-27
2023/10/30 09:52:10;;;;;;;4.30;1.50;;;;;;;18.53;48.59;98558.73;105914;1251;61159;-27
2023/10/30 09:54:37;;;;;;;2.60;1.30;;;;;;;18.47;48.22;98553.86;105874;1256;61103;-27
2023/10/30 09:57:04;;;;;;;3.60;1.30;;;;;;;18.56;48.15;98555.48;105899;1251;73807;-27
2023/10/30 09:59:34;;;;;;;5.30;1.30;;;;;;;18.58;48.27;98553.66;105727;1257;74274;-27
2023/10/30 10:02:01;;;;;;;2.70;1.60;;;;;;;18.64;48.66;98555.63;105726;1257;72906;-27
2023/10/30 10:04:28;;;;;;;3.70;1.10;;;;;;;18.60;48.49;98556.41;105836;1251;61033;-27
2023/10/30 10:06:56;;;;;;;6.80;1.50;;;;;;;18.64;48.62;98557.41;105934;1257;61102;-27
2023/10/30 10:09:23;;;;;;;2.10;1.30;;;;;;;18.68;47.48;98554.53;105697;1251;73994;-27
2023/10/30 10:11:50;;;;;;;3.90;1.20;;;;;;;18.68;47.60;98556.16;105889;1256;73715;-27
2023/10/30 10:14:20;;;;;;;4.80;1.40;;;;;;;18.75;47.38;98550.94;105784;1253;72700;-27
2023/10/30 10:16:47;;;;;;;2.40;1.40;;;;;;;18.75;47.76;98547.86;105717;1254;61093;-27
2023/10/30 10:19:21;;;;;;;6.10;2.00;;;;;;;18.81;47.87;98546.24;105955;1256;61905;-27
2023/10/30 10:21:49;;;;;;;5.50;1.50;;;;;;;18.83;48.10;98549.31;105547;1257;74115;-27
2023/10/30 10:24:28;;;;;;;3.70;1.60;;;;;;;18.81;48.32;98543.68;105724;1259;74482;-27
2023/10/30 10:27:02;;;;;;;3.30;1.30;;;;;;;18.90;48.40;98548.34;105779;1254;72522;-27
2023/10/30 10:29:31;;;;;;;6.00;1.30;;;;;;;18.91;47.97;98546.45;105680;1251;61042;-27
2023/10/30 10:31:58;;;;;;;3.90;1.10;;;;;;;18.96;47.30;98532.17;105654;1254;63015;-27
2023/10/30 10:34:31;;;;;;;3.90;1.20;;;;;;;18.95;47.19;98545.14;105754;1256;73567;-27
2023/10/30 10:36:59;;;;;;;5.30;1.20;;;;;;;18.93;46.93;98540.80;105709;1251;74349;-27
2023/10/30 10:39:26;;;;;;;2.40;1.10;;;;;;;19.01;46.63;98537.65;105802;1252;72800;-27
2023/10/30 10:41:55;;;;;;;6.80;1.40;;;;;;;19.01;46.33;98530.83;105840;1256;62964;-28
2023/10/30 10:44:23;;;;;;;2.20;1.10;;;;;;;19.00;46.50;98534.02;105899;1256;61758;-27
2023/10/30 10:46:52;;;;;;;3.60;1.10;;;;;;;19.01;46.69;98530.86;105917;1260;74470;-27
2023/10/30 10:49:19;;;;;;;6.10;1.30;;;;;;;19.03;46.41;98522.23;106040;1256;73522;-27
2023/10/30 10:51:46;;;;;;;4.50;1.40;;;;;;;18.94;46.62;98525.89;105961;1251;73356;-27
2023/10/30 10:54:23;;;;;;;4.80;1.10;;;;;;;18.98;46.61;98528.30;105530;1257;61106;-28
2023/10/30 10:56:52;;;;;;;3.60;1.50;;;;;;;18.96;46.61;98525.27;105666;1264;61173;-27
2023/10/30 10:59:22;;;;;;;4.00;1.40;;;;;;;18.97;46.44;98516.95;105672;1260;73499;-27
2023/10/30 11:01:49;;;;;;;4.70;1.50;;;;;;;18.99;46.48;98517.02;105574;1259;74168;-27
2023/10/30 11:04:16;;;;;;;4.90;1.30;;;;;;;19.00;46.32;98514.21;105532;1254;72405;-27
2023/10/30 11:06:46;;;;;;;3.00;1.50;;;;;;;19.03;46.47;98512.52;105835;1254;61115;-28
2023/10/30 11:09:45;;;;;;;2.70;1.20;;;;;;;19.00;46.37;98511.79;105743;1259;61640;-27
2023/10/30 11:12:40;;;;;;;4.00;1.40;;;;;;;18.88;46.39;98517.67;105882;1260;74038;-27
2023/10/30 11:15:12;;;;;;;5.60;1.40;;;;;;;18.99;46.81;98522.86;105737;1254;74651;-27
2023/10/30 11:17:39;;;;;;;2.60;1.40;;;;;;;19.09;46.80;98515.45;105670;1258;72228;-27
2023/10/30 11:20:07;;;;;;;4.70;1.40;;;;;;;19.11;46.28;98515.88;105911;1257;61442;-27
2023/10/30 11:22:39;;;;;;;3.50;1.40;;;;;;;19.20;46.07;98507.61;105632;1259;61096;-27
2023/10/30 11:25:35;;;;;;;3.30;1.00;;;;;;;19.28;45.69;98501.48;105548;1260;74633;-27
2023/10/30 11:28:03;;;;;;;2.60;1.30;;;;;;;19.37;45.51;98505.59;105894;1255;74258;-27
2023/10/30 11:30:31;;;;;;;3.20;1.60;;;;;;;19.40;45.45;98499.36;105871;1257;73205;-27